Time;durP1;ratioP1;P1;durP2;ratioP2;P2;SDS_P1;SDS_P2;PMS_P1;PMS_P2;Temp;Humidity;BMP_temperature;BMP_pressure;BME280_temperature;BME280_humidity;BME280_pressure;Samples;Min_cycle;Max_cycle;Signal;HPM_P1;HPM_P2
2021/01/25 00:02:09;;;;;;;5.27;3.60;;;;;;;1.23;57.91;94010.44;5016208;28;20226;-82
2021/01/25 00:04:35;;;;;;;4.60;3.20;;;;;;;1.28;57.99;94018.38;5009879;28;20199;-84
2021/01/25 00:07:01;;;;;;;3.53;3.17;;;;;;;1.39;57.65;94020.56;5011924;28;20231;-82
2021/01/25 00:09:27;;;;;;;4.23;3.23;;;;;;;1.49;57.01;94015.34;5014228;28;20195;-81
2021/01/25 00:11:52;;;;;;;5.13;3.17;;;;;;;1.57;57.20;94017.88;5016118;28;20202;-82
2021/01/25 00:14:19;;;;;;;4.57;3.07;;;;;;;1.59;56.94;94021.81;4998123;28;20231;-83
2021/01/25 00:16:45;;;;;;;4.47;3.30;;;;;;;1.61;56.47;94017.38;5010545;28;20215;-82
2021/01/25 00:19:11;;;;;;;5.03;3.00;;;;;;;1.65;56.31;94018.66;5015813;28;20198;-83
2021/01/25 00:21:37;;;;;;;5.87;3.40;;;;;;;1.68;56.39;94025.94;5002372;28;20203;-82
2021/01/25 00:24:04;;;;;;;5.97;3.90;;;;;;;1.68;56.33;94020.88;4998508;28;20659;-82
2021/01/25 00:26:29;;;;;;;4.23;3.40;;;;;;;1.64;56.76;94024.69;5003315;28;20223;-83
2021/01/25 00:28:55;;;;;;;4.73;3.30;;;;;;;1.65;56.48;94022.94;4997488;28;20210;-83
2021/01/25 00:31:22;;;;;;;4.97;3.23;;;;;;;1.61;56.82;94026.75;5015222;28;20233;-84
2021/01/25 00:33:48;;;;;;;3.80;3.00;;;;;;;1.66;56.38;94022.78;5014865;28;20206;-82
2021/01/25 00:36:14;;;;;;;4.90;3.23;;;;;;;1.60;56.98;94025.94;5005486;28;20761;-82
2021/01/25 00:38:40;;;;;;;4.27;3.10;;;;;;;1.66;56.85;94016.91;5015498;28;20237;-82
2021/01/25 00:41:06;;;;;;;4.37;3.23;;;;;;;1.62;57.11;94011.38;5013616;28;20210;-82
2021/01/25 00:43:32;;;;;;;4.90;3.17;;;;;;;1.65;56.75;94008.50;5015566;28;20207;-82
2021/01/25 00:45:58;;;;;;;6.37;3.43;;;;;;;1.67;56.92;94006.59;5004269;28;20211;-82
2021/01/25 00:48:24;;;;;;;5.63;3.43;;;;;;;1.62;56.74;94001.22;5015683;28;20270;-81
2021/01/25 00:50:50;;;;;;;4.63;3.20;;;;;;;1.46;57.39;93997.91;4998777;28;20223;-84
2021/01/25 00:53:16;;;;;;;4.87;3.13;;;;;;;1.45;57.20;93998.88;4995641;28;20246;-82
2021/01/25 00:55:43;;;;;;;5.33;3.10;;;;;;;1.49;57.37;93992.53;5007600;28;20693;-83
2021/01/25 00:58:11;;;;;;;5.33;3.60;;;;;;;1.52;57.29;93987.94;5015501;28;20198;-83
2021/01/25 01:00:38;;;;;;;4.43;2.83;;;;;;;1.43;56.94;93998.22;4999823;28;20204;-83
2021/01/25 01:03:04;;;;;;;3.60;3.13;;;;;;;1.36;57.48;94003.94;4995601;28;20207;-83
2021/01/25 01:05:31;;;;;;;5.03;3.20;;;;;;;1.13;58.18;93992.06;4996182;28;20307;-82
2021/01/25 01:07:57;;;;;;;4.03;3.07;;;;;;;0.99;58.21;93991.72;4994814;28;20223;-82
2021/01/25 01:10:23;;;;;;;4.23;3.13;;;;;;;0.95;58.73;93984.63;4996183;28;20196;-83
2021/01/25 01:12:49;;;;;;;3.70;3.23;;;;;;;1.02;58.35;93986.34;4995650;28;20203;-83
2021/01/25 01:15:15;;;;;;;4.07;3.03;;;;;;;1.04;58.34;93979.38;5006697;28;20221;-82
2021/01/25 01:17:42;;;;;;;5.10;3.07;;;;;;;1.07;58.40;93980.03;5014818;28;20228;-82
2021/01/25 01:20:09;;;;;;;3.67;2.90;;;;;;;1.14;57.93;93984.31;5014771;28;20194;-83
2021/01/25 01:22:39;;;;;;;4.43;3.43;;;;;;;1.14;58.25;93983.53;5014458;28;20202;-82
2021/01/25 01:25:07;;;;;;;3.23;2.80;;;;;;;1.22;57.79;93980.97;5002427;28;20200;-82
2021/01/25 01:27:33;;;;;;;5.47;3.07;;;;;;;1.18;57.62;93980.50;5000247;28;20222;-81
2021/01/25 01:30:00;;;;;;;4.73;3.63;;;;;;;1.21;57.67;93977.66;4998964;28;20203;-82
2021/01/25 01:32:35;;;;;;;4.03;3.30;;;;;;;1.03;58.02;93974.47;5013301;28;20198;-83
2021/01/25 01:35:01;;;;;;;4.13;3.57;;;;;;;0.90;58.68;93977.50;5013854;28;20206;-82
2021/01/25 01:37:27;;;;;;;3.70;3.30;;;;;;;0.92;58.36;93973.06;4995026;28;20203;-83
2021/01/25 01:39:54;;;;;;;4.17;3.33;;;;;;;0.87;59.16;93970.19;5006789;28;20199;-83
2021/01/25 01:42:20;;;;;;;8.50;2.93;;;;;;;0.77;59.24;93967.00;5014280;28;20234;-82
2021/01/25 01:44:46;;;;;;;5.07;3.07;;;;;;;0.71;59.14;93965.13;5002279;28;20614;-82
2021/01/25 01:47:16;;;;;;;7.33;3.33;;;;;;;0.77;59.39;93963.72;5000929;28;20221;-82
2021/01/25 01:49:43;;;;;;;3.97;2.90;;;;;;;0.80;59.03;93966.69;5002240;28;20200;-82
2021/01/25 01:52:12;;;;;;;4.10;2.93;;;;;;;0.85;59.13;93959.44;4999072;28;20566;-81
2021/01/25 01:54:38;;;;;;;3.23;2.93;;;;;;;0.84;58.77;93962.13;5012637;28;20770;-82
2021/01/25 01:57:05;;;;;;;5.03;2.60;;;;;;;0.82;58.92;93958.94;5008813;28;20216;-82
2021/01/25 01:59:31;;;;;;;4.50;2.83;;;;;;;0.82;58.81;93957.22;5002846;28;20222;-82
2021/01/25 02:01:57;;;;;;;4.87;3.00;;;;;;;0.83;58.52;93956.25;5011873;28;20199;-82
2021/01/25 02:04:23;;;;;;;3.67;2.90;;;;;;;0.86;59.04;93950.88;5012828;28;20203;-82
2021/01/25 02:06:51;;;;;;;3.30;2.70;;;;;;;0.79;58.78;93944.84;5010143;28;20220;-83
2021/01/25 02:09:17;;;;;;;3.47;2.50;;;;;;;0.61;59.42;93942.47;5000961;28;20273;-82
2021/01/25 02:11:45;;;;;;;3.17;2.70;;;;;;;0.56;59.08;93947.22;5012019;28;20207;-83
2021/01/25 02:14:12;;;;;;;4.13;2.70;;;;;;;0.54;59.13;93948.31;4993728;28;20214;-82
2021/01/25 02:16:39;;;;;;;4.43;2.63;;;;;;;0.63;59.10;93948.16;5002943;28;20215;-82
2021/01/25 02:19:07;;;;;;;3.77;2.50;;;;;;;0.62;58.88;93955.91;5011930;28;20195;-82
2021/01/25 02:21:33;;;;;;;4.07;2.67;;;;;;;0.62;58.74;93938.19;5005652;28;20397;-83
2021/01/25 02:24:10;;;;;;;2.83;2.47;;;;;;;0.68;58.29;93935.84;4993461;28;20230;-83
2021/01/25 02:26:54;;;;;;;3.80;2.50;;;;;;;0.67;58.45;93938.53;5002019;28;20229;-83
2021/01/25 02:29:22;;;;;;;4.13;2.73;;;;;;;0.67;58.26;93939.31;5002149;28;20195;-82
2021/01/25 02:31:50;;;;;;;2.70;2.30;;;;;;;0.65;58.25;93932.81;5016208;28;20210;-81
2021/01/25 02:34:16;;;;;;;2.67;2.37;;;;;;;0.59;58.46;93928.38;5017257;28;20207;-82
2021/01/25 02:36:45;;;;;;;3.50;2.27;;;;;;;0.38;58.80;93933.91;4999525;28;20764;-83
2021/01/25 02:39:11;;;;;;;2.83;2.13;;;;;;;0.29;58.99;93932.28;5007695;28;20206;-83
2021/01/25 02:41:40;;;;;;;3.07;2.43;;;;;;;0.15;59.23;93925.31;5017077;28;20203;-82
2021/01/25 02:44:08;;;;;;;2.73;1.93;;;;;;;0.05;59.41;93915.31;5007695;28;20204;-82
2021/01/25 02:46:36;;;;;;;2.40;2.10;;;;;;;-0.02;59.62;93904.22;5004240;28;20672;-83
2021/01/25 02:49:03;;;;;;;2.87;2.13;;;;;;;-0.14;59.68;93895.31;5008029;28;20195;-82
2021/01/25 02:51:28;;;;;;;2.27;1.80;;;;;;;-0.17;59.55;93898.94;5002837;28;20195;-83
2021/01/25 02:53:54;;;;;;;4.03;2.20;;;;;;;-0.12;59.50;93896.75;5017232;28;20250;-84
2021/01/25 02:56:21;;;;;;;2.30;2.10;;;;;;;-0.01;59.38;93893.97;5015143;28;20294;-81
2021/01/25 02:58:48;;;;;;;2.47;1.80;;;;;;;0.06;58.59;93890.81;5001469;28;20199;-83
2021/01/25 03:01:14;;;;;;;2.97;2.10;;;;;;;0.17;58.71;93888.00;4996791;28;20364;-81
2021/01/25 03:03:41;;;;;;;2.07;1.70;;;;;;;0.30;58.23;93886.59;4997378;28;20273;-83
2021/01/25 03:06:10;;;;;;;2.50;2.00;;;;;;;0.37;57.63;93888.50;5007350;28;20703;-82
2021/01/25 03:08:35;;;;;;;3.13;2.10;;;;;;;0.39;57.59;93889.09;5006989;28;20219;-83
2021/01/25 03:11:02;;;;;;;2.10;1.83;;;;;;;0.43;57.31;93891.19;4997219;28;20203;-83
2021/01/25 03:13:29;;;;;;;3.53;1.80;;;;;;;0.48;57.19;93891.50;4998451;28;20211;-83
2021/01/25 03:15:56;;;;;;;2.83;1.93;;;;;;;0.45;56.95;93891.03;4997002;28;20223;-82
2021/01/25 03:18:22;;;;;;;3.20;1.93;;;;;;;0.34;57.05;93889.59;5003219;28;20195;-84
2021/01/25 03:20:50;;;;;;;2.20;1.90;;;;;;;0.31;57.15;93893.22;5016540;28;20203;-83
2021/01/25 03:23:16;;;;;;;2.10;1.60;;;;;;;0.26;57.45;93890.38;5011584;28;20199;-83
2021/01/25 03:25:42;;;;;;;2.47;1.90;;;;;;;0.29;57.17;93886.75;4996513;28;20266;-83
2021/01/25 03:28:08;;;;;;;2.20;1.80;;;;;;;0.31;57.21;93883.13;5000606;28;20215;-83
2021/01/25 03:30:35;;;;;;;2.10;1.80;;;;;;;0.36;56.97;93881.84;5015921;28;20206;-83
2021/01/25 03:33:01;;;;;;;3.10;1.90;;;;;;;0.36;57.12;93876.78;5013388;28;20204;-84
2021/01/25 03:35:27;;;;;;;3.43;1.90;;;;;;;0.36;57.60;93874.25;4996195;28;20699;-84
2021/01/25 03:37:54;;;;;;;2.30;1.80;;;;;;;0.45;57.56;93873.31;4998014;28;20218;-83
2021/01/25 03:40:20;;;;;;;2.00;1.80;;;;;;;0.36;57.62;93884.38;5015839;28;20625;-82
2021/01/25 03:42:46;;;;;;;1.93;1.73;;;;;;;0.42;57.34;93881.22;5015110;28;20209;-83
2021/01/25 03:45:12;;;;;;;2.93;2.03;;;;;;;0.50;57.08;93881.22;4995867;28;20208;-81
2021/01/25 03:47:38;;;;;;;2.30;1.93;;;;;;;0.56;56.38;93888.22;5008682;28;20714;-83
2021/01/25 03:50:05;;;;;;;4.10;1.63;;;;;;;0.60;56.38;93886.91;4976663;28;20204;-81
2021/01/25 03:52:31;;;;;;;2.50;1.67;;;;;;;0.66;56.31;93882.03;5013078;28;20195;-84
2021/01/25 03:54:58;;;;;;;3.30;2.13;;;;;;;0.63;55.90;93884.88;4997070;28;20207;-84
2021/01/25 03:57:24;;;;;;;2.10;1.83;;;;;;;0.71;55.95;93879.03;5011917;28;20210;-81
2021/01/25 03:59:50;;;;;;;2.43;1.90;;;;;;;0.72;55.74;93869.69;4997464;28;20581;-83
2021/01/25 04:02:16;;;;;;;3.53;1.83;;;;;;;0.66;55.79;93866.03;5009610;28;20246;-83
2021/01/25 04:04:42;;;;;;;2.03;1.70;;;;;;;0.70;56.02;93877.44;5015084;28;20257;-83
2021/01/25 04:07:10;;;;;;;2.07;1.90;;;;;;;0.70;55.46;93872.38;5001887;28;20799;-83
2021/01/25 04:09:36;;;;;;;2.57;1.83;;;;;;;0.73;55.57;93873.81;5008707;28;20208;-83
2021/01/25 04:12:04;;;;;;;2.30;1.70;;;;;;;0.69;55.23;93875.84;4996168;28;20214;-83
2021/01/25 04:14:30;;;;;;;3.40;1.70;;;;;;;0.71;55.29;93884.09;4996986;28;20211;-82
2021/01/25 04:16:55;;;;;;;2.90;1.77;;;;;;;0.76;54.71;93884.41;5015184;28;20219;-83
2021/01/25 04:19:21;;;;;;;2.57;2.00;;;;;;;0.75;54.44;93890.44;4999997;28;20196;-83
2021/01/25 04:21:47;;;;;;;2.10;1.90;;;;;;;0.78;54.60;93886.75;4994969;28;20199;-83
2021/01/25 04:24:13;;;;;;;1.83;1.50;;;;;;;0.75;54.82;93884.56;5007363;28;20214;-84
2021/01/25 04:26:41;;;;;;;2.33;1.80;;;;;;;0.77;54.60;93883.44;5014811;28;20230;-83
2021/01/25 04:29:09;;;;;;;2.20;1.90;;;;;;;0.68;54.20;93886.94;5012817;28;20223;-83
2021/01/25 04:31:35;;;;;;;2.27;1.77;;;;;;;0.62;54.22;93883.28;5015021;28;20234;-83
2021/01/25 04:34:01;;;;;;;4.87;2.00;;;;;;;0.57;54.75;93883.00;5002729;28;20199;-83
2021/01/25 04:36:27;;;;;;;2.27;1.93;;;;;;;0.57;54.71;93885.53;4994526;28;20228;-83
2021/01/25 04:38:53;;;;;;;1.60;1.40;;;;;;;0.62;54.08;93879.97;5005853;28;20198;-83
2021/01/25 04:41:19;;;;;;;1.73;1.53;;;;;;;0.65;53.98;93884.72;5014403;28;20701;-83
2021/01/25 04:43:48;;;;;;;3.03;1.77;;;;;;;0.65;54.02;93882.97;5005127;28;20199;-84
2021/01/25 04:46:15;;;;;;;3.83;1.80;;;;;;;0.76;53.26;93883.63;5007040;28;20229;-81
2021/01/25 04:48:45;;;;;;;3.83;1.70;;;;;;;0.80;53.17;93884.88;5005195;28;20227;-83
2021/01/25 04:51:15;;;;;;;1.60;1.47;;;;;;;0.81;53.41;93886.44;4994912;28;20199;-83
2021/01/25 04:53:42;;;;;;;1.70;1.30;;;;;;;0.84;53.49;93886.13;5002589;28;20578;-84
2021/01/25 04:56:09;;;;;;;4.87;1.90;;;;;;;0.85;53.63;93880.91;5014332;28;20218;-82
2021/01/25 04:58:36;;;;;;;2.57;2.00;;;;;;;0.85;53.54;93880.91;5009569;28;20195;-83
2021/01/25 05:01:02;;;;;;;4.03;1.90;;;;;;;0.88;53.52;93885.66;4994327;28;20356;-83
2021/01/25 05:03:29;;;;;;;3.13;1.87;;;;;;;0.84;53.62;93891.19;5006577;28;20206;-83
2021/01/25 05:05:56;;;;;;;6.30;2.10;;;;;;;0.80;53.36;93893.25;5003655;28;20219;-82
2021/01/25 05:08:22;;;;;;;3.03;1.77;;;;;;;0.79;53.12;93884.06;4994547;28;20744;-83
2021/01/25 05:10:48;;;;;;;2.73;1.60;;;;;;;0.71;51.59;93885.81;5002777;28;20202;-83
2021/01/25 05:13:20;;;;;;;3.10;1.50;;;;;;;0.72;50.92;93882.34;4998693;28;20200;-82
2021/01/25 05:15:49;;;;;;;1.70;1.37;;;;;;;0.63;50.91;93884.88;5001558;28;20712;-83
2021/01/25 05:18:20;;;;;;;2.63;2.10;;;;;;;0.40;50.80;93893.22;5011762;28;20195;-83
2021/01/25 05:20:48;;;;;;;2.70;1.40;;;;;;;0.37;50.41;93893.56;4994435;28;20207;-83
2021/01/25 05:23:15;;;;;;;1.00;1.00;;;;;;;0.34;50.22;93895.47;5008265;28;20210;-83
2021/01/25 05:25:42;;;;;;;3.37;1.40;;;;;;;0.40;50.97;93894.03;5013210;28;20241;-83
2021/01/25 05:28:15;;;;;;;1.93;1.43;;;;;;;0.36;50.69;93902.09;4998596;28;20223;-83
2021/01/25 05:30:41;;;;;;;1.37;1.27;;;;;;;0.33;50.69;93906.53;5002843;28;20705;-84
2021/01/25 05:33:07;;;;;;;2.40;1.23;;;;;;;0.37;50.79;93908.75;4999909;28;20211;-83
2021/01/25 05:35:34;;;;;;;4.63;1.50;;;;;;;0.30;50.18;93901.78;4987167;28;20231;-83
2021/01/25 05:38:03;;;;;;;2.00;1.50;;;;;;;0.26;50.59;93908.09;4995361;28;20642;-83
2021/01/25 05:40:30;;;;;;;2.80;1.40;;;;;;;0.24;50.27;93904.91;5000034;28;20196;-82
2021/01/25 05:42:56;;;;;;;2.40;1.30;;;;;;;0.29;50.47;93895.13;4997578;28;20246;-81
2021/01/25 05:45:24;;;;;;;2.40;1.60;;;;;;;0.21;50.47;93900.16;4993306;28;20223;-82
2021/01/25 05:47:51;;;;;;;4.07;1.53;;;;;;;0.27;50.34;93898.75;4993469;28;20679;-81
2021/01/25 05:50:28;;;;;;;1.30;1.20;;;;;;;0.34;49.90;93905.59;4993694;28;20230;-82
2021/01/25 05:52:55;;;;;;;2.97;1.40;;;;;;;0.44;49.73;93902.09;4994263;28;20206;-82
2021/01/25 05:55:22;;;;;;;3.77;1.73;;;;;;;0.48;49.99;93906.69;5003432;28;20202;-82
2021/01/25 05:57:48;;;;;;;15.33;9.53;;;;;;;0.54;50.04;93908.63;5013837;28;20230;-81
2021/01/25 06:00:15;;;;;;;6.97;3.57;;;;;;;0.60;49.76;93914.78;5013218;28;20203;-80
2021/01/25 06:02:42;;;;;;;7.60;2.90;;;;;;;0.66;50.03;93917.47;5013006;28;20203;-81
2021/01/25 06:05:12;;;;;;;10.37;1.87;;;;;;;0.76;50.42;93921.59;5003195;28;20204;-79
2021/01/25 06:07:41;;;;;;;8.00;2.00;;;;;;;0.80;49.76;93923.66;4992409;28;20227;-80
2021/01/25 06:10:12;;;;;;;6.07;1.60;;;;;;;0.82;49.83;93931.88;4994511;28;20210;-79
2021/01/25 06:12:43;;;;;;;6.33;2.03;;;;;;;0.80;50.26;93940.59;4996945;28;20262;-80
2021/01/25 06:15:17;;;;;;;4.73;2.03;;;;;;;0.85;50.26;93944.22;4996018;28;20759;-80
2021/01/25 06:17:45;;;;;;;10.93;2.10;;;;;;;0.76;50.81;93937.59;4996061;28;20207;-81
2021/01/25 06:20:11;;;;;;;5.93;1.77;;;;;;;0.75;50.63;93937.75;4996627;28;20203;-83
2021/01/25 06:22:38;;;;;;;5.47;1.73;;;;;;;0.71;50.21;93924.59;4998144;28;20200;-82
2021/01/25 06:25:07;;;;;;;3.10;1.47;;;;;;;0.72;52.31;93917.81;4996310;28;20203;-81
2021/01/25 06:27:33;;;;;;;3.93;1.77;;;;;;;0.75;52.02;93933.47;4996744;28;20762;-79
2021/01/25 06:30:01;;;;;;;3.43;1.80;;;;;;;0.73;52.21;93939.66;4996001;28;20203;-80
2021/01/25 06:32:31;;;;;;;5.60;1.83;;;;;;;0.80;51.70;93941.38;4996222;28;20758;-80
2021/01/25 06:34:57;;;;;;;3.87;1.97;;;;;;;0.76;51.81;93939.34;4996393;28;20234;-80
2021/01/25 06:37:25;;;;;;;8.00;1.53;;;;;;;0.80;52.03;93958.31;4995795;28;20762;-80
2021/01/25 06:39:50;;;;;;;6.73;1.90;;;;;;;0.85;52.02;93949.31;4995725;28;20863;-81
2021/01/25 06:42:17;;;;;;;19.57;10.47;;;;;;;0.90;51.77;93954.69;4995469;28;20207;-80
2021/01/25 06:44:45;;;;;;;7.97;4.50;;;;;;;0.94;51.76;93955.97;4995400;28;20267;-80
2021/01/25 06:47:20;;;;;;;14.93;2.60;;;;;;;0.97;51.73;93955.63;4995445;28;20231;-80
2021/01/25 06:49:47;;;;;;;9.30;2.30;;;;;;;0.99;52.25;93953.72;4996228;28;20191;-79
2021/01/25 06:52:14;;;;;;;5.33;1.73;;;;;;;1.03;51.80;93955.00;4995828;28;20207;-79
2021/01/25 06:54:45;;;;;;;6.30;1.60;;;;;;;1.11;51.92;93953.44;4995355;28;20199;-79
2021/01/25 06:57:22;;;;;;;4.57;1.37;;;;;;;0.96;52.57;93959.09;4995568;28;20220;-80
2021/01/25 06:59:50;;;;;;;4.33;3.10;;;;;;;1.01;52.03;93959.44;4996034;28;20671;-79
2021/01/25 07:02:23;;;;;;;5.83;2.50;;;;;;;1.05;52.24;93959.91;4995791;28;20230;-80
2021/01/25 07:04:51;;;;;;;19.17;10.47;;;;;;;0.96;52.16;93963.41;4995355;28;20226;-80
2021/01/25 07:07:23;;;;;;;38.37;24.43;;;;;;;0.95;52.85;93974.50;4996094;28;20228;-80
2021/01/25 07:09:53;;;;;;;16.23;9.70;;;;;;;1.02;52.26;93972.91;4995191;28;20223;-79
2021/01/25 07:12:22;;;;;;;4.43;2.63;;;;;;;1.08;51.90;93979.88;4995048;28;20207;-81
2021/01/25 07:14:49;;;;;;;2.33;1.63;;;;;;;1.15;51.83;93980.03;4995620;28;20549;-80
2021/01/25 07:17:15;;;;;;;4.57;1.47;;;;;;;1.21;51.81;93992.84;4994909;28;20224;-79
2021/01/25 07:19:45;;;;;;;8.27;1.67;;;;;;;1.18;52.31;93993.16;4995526;28;20675;-80
2021/01/25 07:22:11;;;;;;;2.70;1.63;;;;;;;1.13;52.27;93987.00;4996027;28;20226;-80
2021/01/25 07:24:38;;;;;;;2.47;1.67;;;;;;;1.11;52.82;93984.63;4995145;28;20204;-82
2021/01/25 07:27:05;;;;;;;7.53;2.20;;;;;;;1.04;54.67;93993.81;4995121;28;20228;-81
2021/01/25 07:29:32;;;;;;;4.67;2.07;;;;;;;0.99;55.30;94003.59;4995402;28;20738;-82
2021/01/25 07:31:59;;;;;;;5.33;1.60;;;;;;;0.86;55.78;94011.69;4995342;28;20203;-81
2021/01/25 07:34:26;;;;;;;4.87;1.80;;;;;;;0.90;56.07;94005.34;4995255;28;20203;-81
2021/01/25 07:36:53;;;;;;;6.83;1.90;;;;;;;0.78;57.05;94004.06;4995548;28;20373;-80
2021/01/25 07:39:20;;;;;;;2.50;1.77;;;;;;;0.73;58.77;94006.28;4995560;28;20234;-80
2021/01/25 07:41:47;;;;;;;5.87;1.87;;;;;;;0.69;60.04;93999.94;4995117;28;20203;-80
2021/01/25 07:44:14;;;;;;;6.97;1.83;;;;;;;0.61;61.95;93998.16;4995035;28;20207;-81
2021/01/25 07:46:43;;;;;;;3.23;1.57;;;;;;;0.56;63.14;93995.34;4995455;28;20779;-81
2021/01/25 07:49:09;;;;;;;4.43;1.83;;;;;;;0.58;63.61;93993.41;4994611;28;20561;-80
2021/01/25 07:51:36;;;;;;;2.93;1.70;;;;;;;0.57;64.57;93989.31;4994503;28;20254;-81
2021/01/25 07:54:04;;;;;;;4.27;1.63;;;;;;;0.57;64.43;93996.13;4993708;28;20210;-81
2021/01/25 07:56:31;;;;;;;2.90;1.80;;;;;;;0.51;64.82;93991.66;4993675;28;20232;-81
2021/01/25 07:59:04;;;;;;;2.23;1.63;;;;;;;0.53;65.51;93995.63;4993933;28;20678;-80
2021/01/25 08:01:35;;;;;;;2.87;1.53;;;;;;;0.39;66.36;93986.09;4994134;28;20231;-79
2021/01/25 08:04:04;;;;;;;6.57;1.73;;;;;;;0.18;67.29;93993.31;4994244;28;20211;-81
2021/01/25 08:06:32;;;;;;;4.03;1.67;;;;;;;0.06;67.78;93989.47;4993879;28;20223;-82
2021/01/25 08:08:59;;;;;;;6.63;3.93;;;;;;;0.06;68.32;93997.03;4993764;28;20219;-80
2021/01/25 08:11:26;;;;;;;4.20;1.70;;;;;;;0.14;68.63;93995.34;4993393;28;20203;-82
2021/01/25 08:14:00;;;;;;;11.03;2.23;;;;;;;0.23;68.91;93999.50;4993260;28;20207;-82
2021/01/25 08:16:34;;;;;;;4.40;1.73;;;;;;;0.28;68.34;94007.41;4993379;28;20759;-82
2021/01/25 08:19:08;;;;;;;3.20;1.70;;;;;;;0.28;68.79;93993.97;4994721;28;20293;-80
2021/01/25 08:21:38;;;;;;;2.50;1.60;;;;;;;0.33;68.68;93992.56;4993891;28;20204;-82
2021/01/25 08:24:08;;;;;;;3.47;1.53;;;;;;;0.35;67.91;93997.50;4993758;28;20214;-80
2021/01/25 08:26:34;;;;;;;2.53;1.60;;;;;;;0.40;68.41;93995.25;4993437;28;20219;-82
2021/01/25 08:29:03;;;;;;;12.30;2.47;;;;;;;0.43;68.27;93999.22;5004324;28;20285;-82
2021/01/25 08:31:32;;;;;;;5.40;1.87;;;;;;;0.42;67.91;93998.44;5014620;28;20203;-83
2021/01/25 08:34:00;;;;;;;3.47;1.57;;;;;;;0.48;67.82;94002.09;5014082;28;20685;-84
2021/01/25 08:36:35;;;;;;;3.63;1.90;;;;;;;0.39;68.80;93997.94;5012933;28;20594;-81
2021/01/25 08:39:12;;;;;;;2.33;1.47;;;;;;;0.48;68.53;94002.09;5013168;28;20208;-80
2021/01/25 08:41:46;;;;;;;1.70;1.40;;;;;;;0.57;68.25;94001.97;5013310;28;20416;-82
2021/01/25 08:44:20;;;;;;;2.37;1.50;;;;;;;0.61;68.44;94005.78;5012936;28;20203;-82
2021/01/25 08:46:49;;;;;;;3.60;1.80;;;;;;;0.63;69.24;94003.88;5013973;28;20235;-82
2021/01/25 08:49:21;;;;;;;4.23;1.67;;;;;;;0.72;68.83;94012.28;5013473;28;20206;-83
2021/01/25 08:52:01;;;;;;;4.03;2.27;;;;;;;0.85;68.38;94011.84;5012651;28;20318;-83
2021/01/25 08:54:32;;;;;;;1.73;1.40;;;;;;;0.83;68.96;94009.44;4993631;28;20214;-82
2021/01/25 08:56:58;;;;;;;2.70;1.47;;;;;;;0.88;68.86;94017.38;4993069;28;20227;-81
2021/01/25 08:59:33;;;;;;;2.30;1.50;;;;;;;0.99;68.27;94012.00;4992632;28;20270;-82
2021/01/25 09:02:09;;;;;;;2.43;1.50;;;;;;;1.01;68.97;94024.50;4992978;28;20626;-81
2021/01/25 09:04:35;;;;;;;1.40;1.30;;;;;;;1.10;68.38;94023.59;4992611;28;20651;-82
2021/01/25 09:07:01;;;;;;;2.87;1.40;;;;;;;1.17;67.72;94011.06;4993378;28;20220;-81
2021/01/25 09:09:27;;;;;;;2.57;1.43;;;;;;;1.19;68.09;94020.09;4992797;28;20242;-81
2021/01/25 09:11:56;;;;;;;1.37;1.20;;;;;;;1.07;69.21;94021.38;4992976;28;20203;-82
2021/01/25 09:14:24;;;;;;;1.90;1.40;;;;;;;1.14;68.83;94022.34;4993057;28;20208;-81
2021/01/25 09:16:51;;;;;;;1.50;1.20;;;;;;;1.20;68.90;94041.97;4993638;28;20226;-82
2021/01/25 09:19:17;;;;;;;4.43;1.50;;;;;;;1.33;68.11;94028.84;4993626;28;20596;-81
2021/01/25 09:21:46;;;;;;;1.90;1.40;;;;;;;1.37;68.09;94027.53;4992958;28;20222;-82
2021/01/25 09:24:12;;;;;;;1.53;1.23;;;;;;;1.39;68.39;94026.44;4993234;28;20254;-82
2021/01/25 09:26:38;;;;;;;2.00;1.50;;;;;;;1.42;69.64;94029.59;4993051;28;20306;-82
2021/01/25 09:29:05;;;;;;;2.23;1.67;;;;;;;1.45;69.37;94032.63;4992922;28;20231;-82
2021/01/25 09:31:31;;;;;;;1.80;1.50;;;;;;;1.49;69.50;94038.97;4992601;28;20200;-81
2021/01/25 09:33:57;;;;;;;2.20;1.60;;;;;;;1.52;69.03;94033.56;4992471;28;20246;-81
2021/01/25 09:36:27;;;;;;;2.03;1.57;;;;;;;1.57;69.53;94041.47;4992504;28;20229;-81
2021/01/25 09:38:56;;;;;;;5.17;1.90;;;;;;;1.63;69.27;94048.47;4992815;28;20196;-83
2021/01/25 09:41:23;;;;;;;2.23;1.50;;;;;;;1.68;69.48;94047.97;4992599;28;20235;-83
2021/01/25 09:43:49;;;;;;;2.80;2.00;;;;;;;1.77;69.05;94054.63;4992262;28;20228;-82
2021/01/25 09:46:15;;;;;;;2.50;2.10;;;;;;;1.84;69.18;94059.84;4992803;28;20679;-83
2021/01/25 09:48:41;;;;;;;3.20;2.10;;;;;;;1.88;68.88;94058.59;4993252;28;20216;-83
2021/01/25 09:51:08;;;;;;;3.13;2.40;;;;;;;1.94;69.10;94060.47;4992424;28;20234;-82
2021/01/25 09:53:34;;;;;;;2.60;1.90;;;;;;;1.96;69.70;94061.09;4993117;28;20211;-83
2021/01/25 09:56:00;;;;;;;4.63;2.20;;;;;;;1.93;70.82;94062.19;4992976;28;20227;-82
2021/01/25 09:58:26;;;;;;;4.93;2.00;;;;;;;1.96;71.39;94061.88;4993644;28;20199;-82
2021/01/25 10:00:52;;;;;;;3.00;1.90;;;;;;;1.99;71.03;94073.47;4993449;28;20195;-83
2021/01/25 10:03:19;;;;;;;2.37;2.07;;;;;;;1.98;71.37;94067.59;4993566;28;20227;-82
2021/01/25 10:05:45;;;;;;;2.30;1.90;;;;;;;2.04;71.18;94073.78;4992756;28;20715;-82
2021/01/25 10:08:12;;;;;;;2.17;1.87;;;;;;;2.06;71.83;94075.22;4993548;28;20227;-82
2021/01/25 10:10:38;;;;;;;4.13;2.50;;;;;;;2.11;71.98;94074.72;4993098;28;20257;-81
2021/01/25 10:13:05;;;;;;;2.20;1.87;;;;;;;2.14;72.27;94073.59;4993705;28;20215;-83
2021/01/25 10:15:33;;;;;;;2.20;1.80;;;;;;;2.16;72.05;94072.47;4993235;28;20219;-83
2021/01/25 10:17:59;;;;;;;2.20;2.00;;;;;;;2.13;73.12;94070.25;4993783;28;20814;-83
2021/01/25 10:20:25;;;;;;;3.37;1.77;;;;;;;2.19;73.05;94077.22;4993618;28;20204;-83
2021/01/25 10:22:50;;;;;;;3.23;1.90;;;;;;;2.25;72.27;94083.41;4993575;28;20207;-83
2021/01/25 10:25:18;;;;;;;3.20;2.00;;;;;;;2.28;72.70;94081.34;4992332;28;20227;-83
2021/01/25 10:27:44;;;;;;;2.90;2.43;;;;;;;2.30;72.71;94086.25;4992084;28;20223;-83
2021/01/25 10:30:13;;;;;;;6.37;3.63;;;;;;;2.27;73.36;94082.28;4993013;28;20203;-83
2021/01/25 10:32:39;;;;;;;5.13;4.30;;;;;;;2.34;73.62;94090.03;4993713;28;20426;-83
2021/01/25 10:35:06;;;;;;;4.30;3.00;;;;;;;2.35;74.36;94086.53;4992667;28;20208;-83
2021/01/25 10:37:32;;;;;;;4.57;2.43;;;;;;;2.38;74.29;94097.16;4993459;28;20230;-82
2021/01/25 10:39:59;;;;;;;2.50;2.30;;;;;;;2.36;75.53;94093.22;4993585;28;20204;-83
2021/01/25 10:42:26;;;;;;;3.83;2.10;;;;;;;2.42;75.85;94092.56;4993152;28;20200;-83
2021/01/25 10:44:52;;;;;;;3.00;2.23;;;;;;;2.46;75.23;94093.03;4993317;28;20221;-84
2021/01/25 10:47:19;;;;;;;9.27;5.50;;;;;;;2.49;75.68;94093.50;4993761;28;20696;-83
2021/01/25 10:49:45;;;;;;;5.63;4.70;;;;;;;2.55;75.70;94097.91;4993088;28;20350;-84
2021/01/25 10:52:11;;;;;;;3.77;2.97;;;;;;;2.58;76.19;94096.78;4996608;28;20718;-83
2021/01/25 10:54:37;;;;;;;3.17;2.47;;;;;;;3.00;96.53;94107.41;4995872;28;20211;-79
2021/01/25 10:57:03;;;;;;;4.73;2.50;;;;;;;3.20;79.29;94107.78;4995587;28;20219;-81
2021/01/25 10:59:30;;;;;;;3.30;2.50;;;;;;;3.26;75.79;94096.16;4996776;28;20204;-80
2021/01/25 11:01:56;;;;;;;2.87;2.30;;;;;;;3.20;75.38;94099.38;4996153;28;20199;-81
2021/01/25 11:04:22;;;;;;;2.50;2.30;;;;;;;3.17;75.21;94112.41;4995996;28;20210;-81
2021/01/25 11:06:48;;;;;;;2.93;2.57;;;;;;;3.10;75.62;94113.06;4996410;28;20223;-81
2021/01/25 11:09:14;;;;;;;2.67;2.20;;;;;;;3.08;75.72;94116.72;4996194;28;20249;-81
2021/01/25 11:11:40;;;;;;;2.30;2.03;;;;;;;3.28;93.57;94120.44;4996790;28;20208;-85
2021/01/25 11:14:06;;;;;;;3.23;1.77;;;;;;;4.12;98.59;94124.59;4996525;28;20207;-85
2021/01/25 11:16:33;;;;;;;2.87;2.10;;;;;;;4.47;78.36;94117.25;4995862;28;20227;-84
2021/01/25 11:18:59;;;;;;;4.80;2.77;;;;;;;4.44;73.31;94117.59;4995971;28;20278;-81
2021/01/25 11:21:25;;;;;;;3.80;2.50;;;;;;;4.31;72.92;94125.06;4995204;28;20210;-82
2021/01/25 11:23:51;;;;;;;4.37;2.77;;;;;;;4.06;72.29;94129.59;4995360;28;20199;-82
2021/01/25 11:26:17;;;;;;;3.43;3.13;;;;;;;3.86;73.21;94133.56;4995667;28;20611;-82
2021/01/25 11:28:47;;;;;;;4.67;3.10;;;;;;;3.71;73.56;94141.94;4995045;28;20599;-82
2021/01/25 11:31:13;;;;;;;15.57;10.93;;;;;;;3.64;73.88;94135.97;4996604;28;20207;-83
2021/01/25 11:33:40;;;;;;;13.03;9.47;;;;;;;3.66;73.25;94138.31;4995263;28;20204;-81
2021/01/25 11:36:07;;;;;;;5.47;3.83;;;;;;;3.67;73.82;94138.16;4995011;28;20227;-83
2021/01/25 11:38:35;;;;;;;4.60;3.33;;;;;;;3.57;74.13;94145.22;4995077;28;20298;-82
2021/01/25 11:41:01;;;;;;;3.10;2.80;;;;;;;3.50;74.70;94146.06;4995465;28;20242;-82
2021/01/25 11:43:27;;;;;;;4.83;3.00;;;;;;;3.48;75.29;94147.03;4995047;28;20199;-81